Time;durP1;ratioP1;P1;durP2;ratioP2;P2;SDS_P1;SDS_P2;PMS_P1;PMS_P2;Temp;Humidity;BMP_temperature;BMP_pressure;BME280_temperature;BME280_humidity;BME280_pressure;Samples;Min_cycle;Max_cycle;Signal;HPM_P1;HPM_P2
2022/06/17 00:01:41;;;;;;;;;14.50;13.00;;;;;23.71;40.17;101889.78;6211373;22;54878;-85
2022/06/17 00:04:07;;;;;;;;;16.00;11.75;;;;;23.67;40.25;101898.91;6211315;22;45284;-85
2022/06/17 00:06:36;;;;;;;;;14.00;11.75;;;;;23.61;40.11;101888.69;6212039;22;45524;-85
2022/06/17 00:09:02;;;;;;;;;15.00;12.00;;;;;23.57;39.53;101877.41;6185053;22;45866;-84
2022/06/17 00:11:32;;;;;;;;;12.25;10.25;;;;;23.56;41.52;101885.47;6185658;22;45385;-84
2022/06/17 00:13:57;;;;;;;;;11.25;10.50;;;;;23.50;40.63;101880.56;6212778;22;45152;-84
2022/06/17 00:16:24;;;;;;;;;10.50;10.50;;;;;23.50;40.03;101878.75;6211329;22;45374;-85
2022/06/17 00:18:49;;;;;;;;;10.75;10.25;;;;;23.49;40.22;101876.19;6186039;22;45679;-85
2022/06/17 00:21:27;;;;;;;;;14.00;12.00;;;;;23.51;40.91;101882.25;6211174;22;63074;-85
2022/06/17 00:23:53;;;;;;;;;13.00;13.00;;;;;23.52;40.12;101878.66;6210995;22;45343;-84
2022/06/17 00:26:19;;;;;;;;;14.00;12.00;;;;;23.42;40.82;101874.88;6185801;22;46279;-85
2022/06/17 00:28:44;;;;;;;;;12.00;12.00;;;;;23.43;41.38;101882.78;6184940;22;45343;-85
2022/06/17 00:31:09;;;;;;;;;11.00;10.75;;;;;23.35;41.97;101883.28;6211362;22;45348;-86
2022/06/17 00:33:35;;;;;;;;;13.50;9.25;;;;;23.32;41.54;101878.16;6211940;22;45249;-86
2022/06/17 00:36:00;;;;;;;;;12.00;10.25;;;;;23.34;41.62;101883.38;6185757;22;45302;-85
2022/06/17 00:38:29;;;;;;;;;14.00;10.75;;;;;23.32;41.86;101885.28;6185317;22;45316;-85
2022/06/17 00:40:57;;;;;;;;;14.25;11.00;;;;;23.24;42.70;101875.16;6212237;22;45271;-85
2022/06/17 00:43:33;;;;;;;;;10.25;9.00;;;;;23.18;42.42;101875.56;6185460;22;45353;-85
2022/06/17 00:46:23;;;;;;;;;10.75;10.75;;;;;23.23;42.69;101881.41;6185771;22;46412;-85
2022/06/17 00:49:13;;;;;;;;;12.75;12.25;;;;;23.21;41.52;101871.84;6211334;22;45759;-85
2022/06/17 00:51:45;;;;;;;;;11.00;10.50;;;;;23.19;41.09;101878.09;6212492;22;45269;-85
2022/06/17 00:54:21;;;;;;;;;12.50;11.75;;;;;23.13;41.67;101864.38;6186032;22;45313;-85
2022/06/17 00:56:46;;;;;;;;;12.75;11.25;;;;;23.13;41.65;101873.19;6185127;22;46138;-85
2022/06/17 00:59:15;;;;;;;;;15.50;12.00;;;;;23.15;42.26;101889.84;6211475;22;58462;-85
2022/06/17 01:01:47;;;;;;;;;12.75;10.75;;;;;23.13;42.01;101888.28;6182679;23;45357;-85
2022/06/17 01:04:15;;;;;;;;;12.75;11.25;;;;;23.12;42.53;101897.16;6183933;23;45477;-84
2022/06/17 01:06:43;;;;;;;;;11.50;11.50;;;;;23.02;41.87;101883.59;6181585;23;46370;-85
2022/06/17 01:12:12;;;;;;;;;12.25;10.00;;;;;23.02;41.85;101888.06;6159499;23;45285;-85
2022/06/17 01:14:38;;;;;;;;;11.75;10.00;;;;;23.05;41.80;101890.53;6181657;23;45613;-85
2022/06/17 01:17:04;;;;;;;;;13.50;11.00;;;;;22.91;41.51;101881.63;6178537;23;47203;-84
2022/06/17 01:19:38;;;;;;;;;13.50;10.25;;;;;22.96;42.77;101898.13;6155162;23;45705;-84
2022/06/17 01:22:22;;;;;;;;;11.50;9.50;;;;;22.90;41.89;101895.84;6155556;23;45281;-84
2022/06/17 01:24:49;;;;;;;;;11.75;11.75;;;;;22.93;42.26;101893.00;6155535;23;45439;-84
2022/06/17 01:27:17;;;;;;;;;12.00;12.00;;;;;22.91;42.06;101886.94;6154699;23;46558;-84
2022/06/17 01:29:42;;;;;;;;;11.75;10.00;;;;;22.92;41.89;101890.44;6154703;23;45801;-84
2022/06/17 01:32:08;;;;;;;;;14.00;12.00;;;;;22.89;41.73;101894.13;6154269;23;47899;-84
2022/06/17 01:34:33;;;;;;;;;11.00;10.00;;;;;22.90;42.08;101906.47;6154031;23;68287;-84
2022/06/17 01:36:59;;;;;;;;;9.00;9.00;;;;;22.86;42.23;101894.31;6154197;23;72733;-85
2022/06/17 01:39:24;;;;;;;;;11.25;10.75;;;;;22.87;41.87;101896.03;6155319;23;45370;-84
2022/06/17 01:41:51;;;;;;;;;11.75;11.25;;;;;22.84;41.81;101893.56;6180668;23;64776;-84
2022/06/17 01:44:23;;;;;;;;;9.50;9.50;;;;;22.86;42.01;101896.13;6155007;23;45330;-84
2022/06/17 01:46:52;;;;;;;;;11.00;11.00;;;;;22.84;42.60;101895.38;6154213;23;47493;-85
2022/06/17 01:49:25;;;;;;;;;15.00;11.75;;;;;22.80;42.05;101906.19;6154807;23;45439;-85
2022/06/17 01:52:05;;;;;;;;;10.75;10.75;;;;;22.78;42.52;101917.84;6179943;23;45240;-85
2022/06/17 01:55:01;;;;;;;;;13.25;12.00;;;;;22.72;43.00;101921.72;6155292;23;45210;-85
2022/06/17 01:57:36;;;;;;;;;14.00;11.50;;;;;22.65;43.10;101909.78;6181327;23;45346;-84
2022/06/17 02:00:14;;;;;;;;;11.50;11.50;;;;;22.68;43.15;101916.69;6155097;23;45732;-84
2022/06/17 02:02:40;;;;;;;;;12.25;12.25;;;;;22.65;42.54;101916.91;6180996;23;45425;-85
2022/06/17 02:05:07;;;;;;;;;13.25;13.00;;;;;22.63;41.99;101932.91;6154490;23;62365;-84
2022/06/17 02:07:54;;;;;;;;;16.50;12.50;;;;;22.56;42.73;101927.13;6179368;23;47373;-85
2022/06/17 02:10:26;;;;;;;;;14.25;12.50;;;;;22.60;42.70;101933.97;6154223;23;45308;-84
2022/06/17 02:12:51;;;;;;;;;11.75;11.50;;;;;22.50;43.71;101921.34;6180211;23;45307;-85
2022/06/17 02:15:17;;;;;;;;;12.25;10.50;;;;;22.46;42.88;101927.78;6154641;23;45444;-85
2022/06/17 02:17:44;;;;;;;;;15.25;11.75;;;;;22.47;42.73;101937.44;6153966;23;66298;-85
2022/06/17 02:20:11;;;;;;;;;11.75;11.25;;;;;22.44;43.19;101942.94;6181450;23;45325;-86
2022/06/17 02:22:37;;;;;;;;;12.25;10.00;;;;;22.42;42.97;101941.22;6179740;23;45304;-85
2022/06/17 02:25:13;;;;;;;;;11.00;11.00;;;;;22.41;42.81;101944.81;6181300;23;45454;-85
2022/06/17 02:27:40;;;;;;;;;12.25;12.25;;;;;22.36;44.10;101943.38;6155098;23;46483;-85
2022/06/17 02:30:08;;;;;;;;;12.50;11.50;;;;;22.34;44.50;101948.81;6154766;23;62921;-85
2022/06/17 02:32:35;;;;;;;;;15.50;10.25;;;;;22.21;44.25;101927.44;6182226;23;45276;-85
2022/06/17 02:35:12;;;;;;;;;11.50;10.75;;;;;22.26;43.71;101948.38;6156092;23;45348;-85
2022/06/17 02:37:37;;;;;;;;;11.50;11.50;;;;;22.23;43.73;101929.97;6180612;23;45423;-85
2022/06/17 02:40:06;;;;;;;;;11.25;10.00;;;;;22.24;43.93;101934.34;6182215;23;59466;-85
2022/06/17 02:42:34;;;;;;;;;11.00;10.50;;;;;22.28;43.58;101938.53;6155953;23;45247;-85
2022/06/17 02:45:04;;;;;;;;;14.75;11.75;;;;;22.22;43.63;101936.22;6155265;23;45380;-86
2022/06/17 02:47:31;;;;;;;;;13.50;12.00;;;;;22.21;43.51;101940.69;6182075;23;47584;-86
2022/06/17 02:49:57;;;;;;;;;13.00;12.00;;;;;22.22;44.17;101945.03;6181472;23;56613;-86
2022/06/17 02:52:35;;;;;;;;;10.50;9.00;;;;;22.21;43.86;101951.28;6129822;23;66268;-86
2022/06/17 02:55:06;;;;;;;;;11.00;11.00;;;;;22.21;43.71;101950.41;6156577;23;45430;-85
2022/06/17 02:57:31;;;;;;;;;9.50;9.25;;;;;22.20;43.81;101938.97;6181726;23;47822;-85
2022/06/17 03:00:00;;;;;;;;;10.25;10.25;;;;;22.21;43.61;101945.13;6155058;23;45276;-85
2022/06/17 03:02:34;;;;;;;;;11.00;11.00;;;;;22.14;44.27;101938.47;6209777;22;45308;-84
2022/06/17 03:05:00;;;;;;;;;16.00;12.00;;;;;22.13;43.80;101942.91;6212383;22;45494;-85
2022/06/17 03:07:29;;;;;;;;;13.50;11.00;;;;;22.12;44.08;101935.94;6211167;22;46407;-85
2022/06/17 03:09:54;;;;;;;;;13.25;12.00;;;;;22.08;45.04;101937.03;6186083;22;45318;-85
2022/06/17 03:12:22;;;;;;;;;12.50;10.75;;;;;22.10;45.38;101931.63;6185834;22;45265;-85
2022/06/17 03:14:59;;;;;;;;;11.75;11.75;;;;;22.08;44.25;101937.03;6185170;22;45273;-84
2022/06/17 03:17:25;;;;;;;;;11.00;11.00;;;;;22.10;45.44;101923.69;6212121;22;46142;-85
2022/06/17 03:19:52;;;;;;;;;12.25;11.00;;;;;22.04;44.56;101931.03;6185555;22;51800;-85
2022/06/17 03:22:17;;;;;;;;;11.25;11.00;;;;;21.98;44.94;101922.63;6186098;22;45333;-85
2022/06/17 03:25:04;;;;;;;;;13.75;12.50;;;;;22.03;44.23;101925.84;6212743;22;45271;-85
2022/06/17 03:27:38;;;;;;;;;13.75;11.00;;;;;22.02;45.22;101922.34;6185433;22;45370;-84
2022/06/17 03:30:05;;;;;;;;;14.50;13.75;;;;;22.02;45.57;101924.13;6160275;22;45878;-86
2022/06/17 03:32:34;;;;;;;;;11.50;11.25;;;;;21.90;44.94;101903.63;6160784;22;45240;-85
2022/06/17 03:34:59;;;;;;;;;18.75;13.50;;;;;21.92;45.95;101901.78;6185536;22;45378;-85
2022/06/17 03:37:33;;;;;;;;;17.75;11.25;;;;;21.91;45.72;101894.75;6212462;22;45616;-85
2022/06/17 03:40:05;;;;;;;;;12.50;10.00;;;;;21.93;45.60;101890.22;6185693;22;45318;-85
2022/06/17 03:42:35;;;;;;;;;16.00;13.00;;;;;21.89;45.38;101886.03;6185152;22;45296;-84
2022/06/17 03:45:09;;;;;;;;;13.50;11.00;;;;;21.87;45.18;101917.94;6160649;22;45274;-85
2022/06/17 03:47:42;;;;;;;;;14.50;11.25;;;;;21.82;45.79;101928.81;6185203;22;46521;-85
2022/06/17 03:50:18;;;;;;;;;9.75;9.75;;;;;21.78;45.89;101929.91;6211946;22;45592;-86
2022/06/17 03:52:48;;;;;;;;;13.50;13.25;;;;;21.76;46.34;101936.25;6185814;22;45244;-85
2022/06/17 03:55:15;;;;;;;;;12.00;12.00;;;;;21.72;47.17;101946.16;6185963;22;45295;-85
2022/06/17 03:57:43;;;;;;;;;13.75;12.50;;;;;21.60;47.34;101933.59;6185456;22;45430;-85
2022/06/17 04:00:16;;;;;;;;;12.25;10.25;;;;;21.65;48.25;101942.16;6185998;22;45634;-86
2022/06/17 04:02:42;;;;;;;;;12.50;12.00;;;;;21.57;47.92;101936.44;6185807;22;45520;-86
2022/06/17 04:05:14;;;;;;;;;14.75;12.00;;;;;21.60;47.96;101949.50;6210546;22;58645;-86
2022/06/17 04:07:40;;;;;;;;;13.50;12.75;;;;;21.55;47.94;101935.69;6185610;22;45569;-86
2022/06/17 04:10:05;;;;;;;;;12.00;11.00;;;;;21.57;48.53;101931.16;6210798;22;45335;-86
2022/06/17 04:12:31;;;;;;;;;12.75;11.75;;;;;21.56;48.07;101932.06;6185041;22;45320;-85
2022/06/17 04:14:59;;;;;;;;;13.25;11.00;;;;;21.60;47.19;101937.13;6210631;22;45430;-85
2022/06/17 04:17:43;;;;;;;;;14.25;11.25;;;;;21.62;46.70;101931.75;6210530;22;48317;-86
2022/06/17 04:20:14;;;;;;;;;14.25;13.00;;;;;21.67;46.24;101942.06;6212552;22;45360;-86
2022/06/17 04:22:40;;;;;;;;;9.50;7.00;;;;;21.63;46.42;101931.63;6212737;22;45421;-86
2022/06/17 04:25:07;;;;;;;;;14.75;12.00;;;;;21.64;45.71;101930.72;6185759;22;45364;-86
2022/06/17 04:30:21;;;;;;;;;15.75;13.00;;;;;21.73;46.41;101942.59;6212425;22;45204;-86
2022/06/17 04:32:48;;;;;;;;;14.25;13.25;;;;;21.70;45.60;101932.16;6185588;22;45269;-86
2022/06/17 04:35:14;;;;;;;;;12.00;11.00;;;;;21.69;46.12;101929.59;6210989;22;45335;-86
2022/06/17 04:37:40;;;;;;;;;14.25;13.50;;;;;21.70;47.79;101933.97;6212332;22;45500;-84
2022/06/17 04:40:18;;;;;;;;;14.25;13.00;;;;;21.68;45.98;101931.41;6185053;22;45696;-85
2022/06/17 04:42:44;;;;;;;;;13.75;12.25;;;;;21.78;46.68;101951.09;6185752;22;45337;-86
2022/06/17 04:45:22;;;;;;;;;13.25;13.25;;;;;21.76;48.17;101952.16;6185844;22;45286;-85
2022/06/17 04:47:48;;;;;;;;;12.25;12.25;;;;;21.63;47.58;101931.63;6185125;22;46441;-85
2022/06/17 04:50:16;;;;;;;;;16.25;13.25;;;;;21.62;47.18;101935.25;6210169;22;57665;-85
2022/06/17 04:52:43;;;;;;;;;13.25;11.00;;;;;21.65;47.59;101934.19;6185194;22;45313;-86
2022/06/17 04:55:20;;;;;;;;;12.75;12.75;;;;;21.76;47.96;101953.00;6212023;22;45287;-85
2022/06/17 04:57:47;;;;;;;;;17.50;14.25;;;;;21.74;47.77;101951.38;6185118;22;47095;-86
2022/06/17 05:00:19;;;;;;;;;16.75;14.25;;;;;21.69;49.07;101943.69;6185257;22;45392;-85
2022/06/17 05:02:45;;;;;;;;;14.75;11.00;;;;;21.72;48.43;101942.66;6212096;22;45413;-86
2022/06/17 05:05:16;;;;;;;;;15.75;15.25;;;;;21.78;49.65;101939.66;6185449;22;45573;-86
2022/06/17 05:07:47;;;;;;;;;13.50;11.50;;;;;21.75;48.21;101932.75;6185501;22;45648;-85
2022/06/17 05:10:17;;;;;;;;;17.50;13.75;;;;;21.86;48.44;101942.75;6184732;22;45759;-86
2022/06/17 05:12:49;;;;;;;;;15.25;13.25;;;;;21.86;47.74;101929.50;6185822;22;45283;-86
2022/06/17 05:15:20;;;;;;;;;16.00;14.25;;;;;22.01;48.53;101947.16;6160244;22;45296;-85
2022/06/17 05:17:46;;;;;;;;;16.00;12.75;;;;;22.03;47.33;101936.47;6185352;22;46458;-85
2022/06/17 05:20:16;;;;;;;;;16.00;13.75;;;;;22.08;47.07;101934.38;6212320;22;45311;-86
2022/06/17 05:22:46;;;;;;;;;13.50;11.75;;;;;22.13;46.66;101934.97;6212609;22;45413;-86
2022/06/17 05:25:23;;;;;;;;;17.00;16.00;;;;;22.14;47.10;101935.81;6184554;22;45263;-85
2022/06/17 05:27:48;;;;;;;;;14.25;12.50;;;;;22.10;47.14;101919.25;6211482;22;46194;-84
2022/06/17 05:30:14;;;;;;;;;14.75;14.00;;;;;22.16;46.83;101926.00;6184083;22;60807;-85
2022/06/17 05:32:53;;;;;;;;;12.75;11.25;;;;;22.20;47.15;101923.06;6211841;22;45420;-85
2022/06/17 05:35:20;;;;;;;;;17.25;11.25;;;;;22.21;46.72;101915.94;6185773;22;45284;-85
2022/06/17 05:37:45;;;;;;;;;13.25;12.75;;;;;22.23;46.04;101914.06;6212099;22;45557;-85
2022/06/17 05:40:11;;;;;;;;;20.50;16.50;;;;;22.26;46.34;101910.41;6185592;22;45289;-86
2022/06/17 05:42:37;;;;;;;;;13.50;13.00;;;;;22.32;46.11;101918.00;6211810;22;45329;-86
2022/06/17 05:45:04;;;;;;;;;15.50;15.00;;;;;22.35;46.13;101915.16;6212555;22;45383;-86
2022/06/17 05:47:29;;;;;;;;;17.00;13.25;;;;;22.37;46.68;101922.06;6211137;22;46718;-85
2022/06/17 05:49:55;;;;;;;;;18.00;14.00;;;;;22.36;46.62;101911.56;6184442;22;63149;-85
2022/06/17 05:52:20;;;;;;;;;20.00;15.25;;;;;22.44;46.85;101916.41;6185034;22;51938;-85
2022/06/17 05:54:46;;;;;;;;;16.50;15.00;;;;;22.47;46.24;101921.53;6210733;22;45293;-86
2022/06/17 05:57:12;;;;;;;;;16.00;14.00;;;;;22.52;46.56;101930.91;6186037;22;46296;-87
2022/06/17 05:59:42;;;;;;;;;18.75;15.75;;;;;22.53;45.70;101915.84;6212091;22;45399;-87
2022/06/17 06:02:35;;;;;;;;;;;;;;;;;;;;;
2022/06/17 06:05:00;;;;;;;;;15.25;13.50;;;;;22.64;45.46;101915.19;6182374;22;71203;-85
2022/06/17 06:07:26;;;;;;;;;15.50;14.25;;;;;22.69;45.69;101915.75;6184471;22;47790;-87
2022/06/17 06:09:51;;;;;;;;;14.25;12.50;;;;;22.70;45.88;101912.19;6185840;22;45359;-87
2022/06/17 06:12:18;;;;;;;;;15.25;14.25;;;;;22.77;45.72;101906.38;6185749;22;45318;-89
2022/06/17 06:14:43;;;;;;;;;12.75;12.75;;;;;22.86;45.43;101909.41;6209720;22;45437;-86
2022/06/17 06:17:11;;;;;;;;;12.25;11.50;;;;;22.85;45.65;101897.94;6210966;22;45959;-84
2022/06/17 06:19:36;;;;;;;;;11.50;11.50;;;;;22.90;45.88;101893.19;6211315;22;45642;-83
2022/06/17 06:22:01;;;;;;;;;10.75;10.75;;;;;22.99;44.20;101897.06;6182871;22;68836;-81
2022/06/17 06:24:27;;;;;;;;;11.25;9.75;;;;;22.96;44.02;101882.19;6211347;22;45405;-83
2022/06/17 06:26:52;;;;;;;;;10.50;9.25;;;;;23.06;43.37;101889.59;6184182;22;45568;-85
2022/06/17 06:29:17;;;;;;;;;10.00;9.75;;;;;23.05;43.42;101880.78;6182985;22;73418;-82
2022/06/17 06:31:44;;;;;;;;;11.00;10.50;;;;;23.15;42.59;101891.69;6210420;22;45234;-81
2022/06/17 06:34:10;;;;;;;;;9.00;8.00;;;;;23.22;42.22;101900.97;6158594;22;45446;-81
2022/06/17 06:36:36;;;;;;;;;11.50;8.50;;;;;23.32;42.15;101888.78;6210030;22;46404;-84
2022/06/17 06:39:01;;;;;;;;;8.50;8.50;;;;;23.38;42.05;101890.19;6184021;22;45265;-81
2022/06/17 06:41:26;;;;;;;;;10.75;8.50;;;;;23.42;42.31;101880.22;6210966;22;45382;-83
2022/06/17 06:43:52;;;;;;;;;8.50;8.50;;;;;23.55;42.49;101894.38;6209647;22;63998;-85
2022/06/17 06:46:19;;;;;;;;;14.50;10.00;;;;;23.64;42.00;101903.56;6200080;22;47008;-83
2022/06/17 06:48:45;;;;;;;;;11.00;9.00;;;;;23.67;41.08;101887.44;6182330;22;45384;-85
2022/06/17 06:51:11;;;;;;;;;11.75;11.75;;;;;23.69;41.86;101885.53;6180940;22;45414;-85
2022/06/17 06:53:36;;;;;;;;;9.50;9.50;;;;;23.84;41.20;101889.84;6207547;22;45445;-85
2022/06/17 06:56:03;;;;;;;;;9.00;7.25;;;;;24.01;41.26;101894.00;6207691;22;45522;-84
2022/06/17 06:58:28;;;;;;;;;11.00;10.00;;;;;24.09;40.75;101893.50;6207683;22;45672;-80
2022/06/17 07:00:56;;;;;;;;;9.25;8.25;;;;;24.15;40.49;101891.28;6208851;22;45228;-79
2022/06/17 07:03:22;;;;;;;;;8.00;7.25;;;;;24.31;41.86;101906.19;6205762;22;45677;-80
2022/06/17 07:05:50;;;;;;;;;10.00;9.25;;;;;24.38;40.64;101902.16;6180968;22;46526;-81
2022/06/17 07:08:18;;;;;;;;;13.00;10.00;;;;;24.45;40.41;101907.91;6181186;22;45265;-80
2022/06/17 07:10:46;;;;;;;;;14.25;11.25;;;;;24.53;39.72;101914.44;6208720;22;45296;-81
2022/06/17 07:13:12;;;;;;;;;13.00;11.25;;;;;24.64;39.89;101911.00;6181295;22;45446;-81
2022/06/17 07:15:39;;;;;;;;;8.00;7.00;;;;;24.67;39.88;101904.63;6182538;22;47218;-80
2022/06/17 07:18:26;;;;;;;;;9.00;9.00;;;;;24.79;39.84;101918.88;6209506;22;45259;-81
2022/06/17 07:20:54;;;;;;;;;7.00;7.00;;;;;24.86;39.34;101914.84;6207613;22;45367;-79
2022/06/17 07:23:21;;;;;;;;;10.00;10.00;;;;;25.00;39.08;101913.84;6208755;22;45438;-80
2022/06/17 07:25:46;;;;;;;;;8.00;7.00;;;;;25.05;39.25;101909.88;6208982;22;46327;-81
2022/06/17 07:28:15;;;;;;;;;14.00;9.00;;;;;25.09;37.93;101908.72;6207024;22;45382;-81
2022/06/17 07:30:40;;;;;;;;;9.50;9.00;;;;;25.10;37.73;101910.41;6184377;22;45343;-81
2022/06/17 07:33:06;;;;;;;;;11.50;8.25;;;;;25.24;38.45;101914.78;6184685;22;45593;-81
2022/06/17 07:35:31;;;;;;;;;7.25;7.25;;;;;25.29;37.26;101917.94;6210429;22;45726;-81
2022/06/17 07:40:47;;;;;;;;;11.25;8.50;;;;;25.47;38.01;101937.06;6189386;22;45311;-81
2022/06/17 07:43:14;;;;;;;;;9.00;8.50;;;;;25.54;36.82;101931.28;6211741;22;45413;-81
2022/06/17 07:45:39;;;;;;;;;8.00;8.00;;;;;25.58;36.28;101933.63;6211753;22;46525;-80
2022/06/17 07:48:05;;;;;;;;;9.25;7.25;;;;;25.63;36.11;101941.28;6182951;22;65775;-81
2022/06/17 07:50:32;;;;;;;;;10.00;9.00;;;;;25.74;36.24;101951.16;6210735;22;45236;-80
2022/06/17 07:52:58;;;;;;;;;22.75;20.50;;;;;25.79;36.50;101949.84;6211165;22;45402;-80
2022/06/17 07:55:23;;;;;;;;;11.00;8.75;;;;;25.86;35.68;101951.09;6210622;22;57774;-80
2022/06/17 07:57:49;;;;;;;;;11.00;8.50;;;;;25.98;36.49;101970.69;6211038;22;45453;-81
2022/06/17 08:00:25;;;;;;;;;10.00;9.00;;;;;26.09;36.01;101972.53;6211353;22;45224;-80
2022/06/17 08:02:50;;;;;;;;;9.00;8.75;;;;;26.15;35.94;101965.88;6211221;22;45609;-80
2022/06/17 08:05:16;;;;;;;;;9.50;8.00;;;;;26.22;35.24;101959.97;6210717;22;55485;-81
2022/06/17 08:07:42;;;;;;;;;11.25;10.00;;;;;26.31;34.64;101961.09;6210389;22;45328;-80
2022/06/17 08:10:07;;;;;;;;;10.75;7.00;;;;;26.39;34.28;101972.03;6211717;22;45292;-81
2022/06/17 08:12:33;;;;;;;;;14.25;10.00;;;;;26.49;34.28;101963.34;6210507;22;45470;-81
2022/06/17 08:14:58;;;;;;;;;11.00;9.50;;;;;26.59;32.98;101966.97;6184109;22;47114;-80
2022/06/17 08:17:24;;;;;;;;;11.00;9.25;;;;;26.64;33.64;101957.66;6183558;22;66376;-80
2022/06/17 08:19:51;;;;;;;;;7.50;7.00;;;;;26.72;33.51;101967.75;6211107;22;45294;-81
2022/06/17 08:22:18;;;;;;;;;11.50;9.00;;;;;26.71;33.31;101954.50;6211358;22;45279;-81
2022/06/17 08:24:43;;;;;;;;;9.50;8.25;;;;;26.85;32.77;101967.63;6210896;22;45259;-80
2022/06/17 08:27:09;;;;;;;;;10.75;9.50;;;;;26.93;34.42;101961.69;6210818;22;45618;-80
2022/06/17 08:29:34;;;;;;;;;10.00;8.00;;;;;26.97;32.90;101963.16;6210668;22;50850;-80
2022/06/17 08:32:45;;;;;;;;;8.00;7.75;;;;;27.03;33.21;101963.50;6211712;22;45393;-81
2022/06/17 08:34:45;;;;;;;;;9.50;8.00;;;;;27.14;33.38;101959.13;6210762;22;45218;-81
2022/06/17 08:37:12;;;;;;;;;8.00;8.00;;;;;27.17;32.75;101953.53;6184202;22;45749;-81
2022/06/17 08:39:38;;;;;;;;;8.75;8.75;;;;;27.23;33.60;101951.22;6209256;22;45326;-81
2022/06/17 08:42:25;;;;;;;;;9.50;7.50;;;;;27.37;32.71;101947.44;6210484;22;57061;-81
2022/06/17 08:45:06;;;;;;;;;9.00;7.50;;;;;27.44;32.43;101942.47;6185023;22;46436;-81
2022/06/17 08:47:47;;;;;;;;;9.50;8.25;;;;;27.52;32.31;101948.00;6209789;22;45284;-81
2022/06/17 08:51:04;;;;;;;;;7.25;5.75;;;;;27.61;32.13;101941.06;6184444;22;45351;-82
2022/06/17 08:53:48;;;;;;;;;7.50;6.25;;;;;27.67;32.69;101934.34;6088097;23;45432;-81
2022/06/17 08:56:28;;;;;;;;;6.00;5.25;;;;;27.73;32.45;101933.84;6064138;23;46202;-82
2022/06/17 08:59:15;;;;;;;;;10.00;8.50;;;;;27.81;31.26;101948.28;6064406;23;45842;-81
2022/06/17 09:01:51;;;;;;;;;9.00;7.00;;;;;27.87;32.44;101941.56;6088044;23;45414;-82
2022/06/17 09:05:11;;;;;;;;;7.00;7.00;;;;;27.99;32.04;101940.59;6089786;23;45413;-82
2022/06/17 09:08:00;;;;;;;;;7.75;7.25;;;;;28.06;29.47;101942.72;5990441;23;45445;-81
2022/06/17 09:10:33;;;;;;;;;10.00;9.00;;;;;28.05;30.01;101928.50;5978363;23;45353;-82
2022/06/17 09:13:16;;;;;;;;;7.00;7.00;;;;;28.16;29.79;101938.31;5978734;23;45371;-82
2022/06/17 09:15:44;;;;;;;;;6.50;6.50;;;;;28.18;30.25;101925.66;5978378;23;45375;-81
2022/06/17 09:18:19;;;;;;;;;7.50;7.00;;;;;28.25;29.21;101928.63;6001437;23;47216;-82
2022/06/17 09:20:47;;;;;;;;;9.00;6.25;;;;;28.32;29.53;101927.13;5978233;23;45723;-81
2022/06/17 09:23:17;;;;;;;;;8.75;7.75;;;;;28.47;29.84;101930.31;5979291;23;45316;-82
2022/06/17 09:25:45;;;;;;;;;8.75;7.00;;;;;28.57;30.40;101926.75;6002521;23;45308;-82
2022/06/17 09:28:21;;;;;;;;;7.50;7.50;;;;;28.60;28.48;101904.19;6023050;23;46447;-81
2022/06/17 09:31:04;;;;;;;;;9.25;6.25;;;;;28.70;28.96;101917.63;6063706;23;45376;-83
2022/06/17 09:33:41;;;;;;;;;10.50;6.50;;;;;28.69;28.68;101913.25;6088359;23;45391;-81
2022/06/17 09:36:14;;;;;;;;;6.75;6.25;;;;;28.82;29.26;101913.84;6088227;23;45376;-83
2022/06/17 09:38:47;;;;;;;;;7.00;6.00;;;;;28.90;28.95;101915.84;6063767;23;45587;-81
2022/06/17 09:41:17;;;;;;;;;6.00;6.00;;;;;29.00;27.77;101924.78;6064826;23;45798;-82
2022/06/17 09:43:52;;;;;;;;;5.75;5.50;;;;;29.15;29.44;101918.09;6193008;22;45322;-85
2022/06/17 09:46:24;;;;;;;;;7.25;6.00;;;;;29.30;28.57;101913.16;6209744;22;45353;-83
2022/06/17 09:48:59;;;;;;;;;9.50;8.00;;;;;29.39;28.41;101922.22;6183808;22;45585;-85
2022/06/17 09:51:34;;;;;;;;;6.50;6.50;;;;;29.44;28.17;101927.16;6210183;22;45434;-84
2022/06/17 09:54:14;;;;;;;;;6.00;6.00;;;;;29.51;28.00;101910.38;6184500;22;45430;-83
2022/06/17 09:57:20;;;;;;;;;6.50;6.50;;;;;29.64;28.03;101912.78;6183888;22;45280;-83
2022/06/17 09:59:50;;;;;;;;;7.50;6.25;;;;;29.67;27.55;101906.28;6063794;23;45892;-85
2022/06/17 10:02:20;;;;;;;;;8.75;8.75;;;;;29.72;28.23;101915.59;6059051;23;45791;-85
2022/06/17 10:04:45;;;;;;;;;6.50;5.75;;;;;29.79;29.08;101915.94;6059016;23;45342;-85
2022/06/17 10:07:19;;;;;;;;;9.00;6.00;;;;;29.85;27.68;101911.84;6059058;23;62279;-84
2022/06/17 10:09:53;;;;;;;;;7.50;7.50;;;;;29.91;28.29;101920.13;6059241;23;45410;-83
2022/06/17 10:12:25;;;;;;;;;7.00;7.00;;;;;30.00;27.93;101914.94;6059109;23;45822;-84
2022/06/17 10:15:27;;;;;;;;;6.00;6.00;;;;;30.07;26.84;101919.56;6058785;23;45726;-82
2022/06/17 10:18:33;;;;;;;;;7.50;7.25;;;;;30.16;27.08;101909.78;6059729;23;45366;-83
2022/06/17 10:21:33;;;;;;;;;6.50;6.50;;;;;30.28;27.67;101914.00;6059064;23;47438;-84
2022/06/17 10:24:16;;;;;;;;;5.00;5.00;;;;;30.32;27.64;101911.03;6059663;23;45313;-83
2022/06/17 10:27:09;;;;;;;;;6.00;6.00;;;;;30.39;27.76;101904.97;6059876;23;45366;-84
2022/06/17 10:29:41;;;;;;;;;5.75;5.75;;;;;30.40;26.77;101901.25;6058701;23;45494;-86
2022/06/17 10:32:07;;;;;;;;;5.50;5.25;;;;;30.39;26.98;101913.03;6059009;23;46508;-85
2022/06/17 10:34:48;;;;;;;;;5.25;5.25;;;;;30.44;26.70;101923.31;6084799;23;45437;-84
2022/06/17 10:37:14;;;;;;;;;6.25;4.50;;;;;30.45;27.56;101915.09;6153497;23;45284;-84
2022/06/17 10:39:40;;;;;;;;;7.25;6.50;;;;;30.48;26.72;101912.13;6153666;23;45277;-87
2022/06/17 10:42:07;;;;;;;;;5.50;5.50;;;;;30.63;26.76;101912.50;6180007;23;46103;-86
2022/06/17 10:44:33;;;;;;;;;5.75;5.50;;;;;30.73;24.68;101915.16;6153361;23;45434;-83
2022/06/17 10:47:04;;;;;;;;;5.75;5.75;;;;;30.77;27.18;101916.53;6179036;23;59819;-82
2022/06/17 10:49:33;;;;;;;;;6.75;5.75;;;;;30.80;26.37;101915.41;6181396;23;45478;-84
2022/06/17 10:52:01;;;;;;;;;7.00;7.00;;;;;30.87;26.64;101917.34;6181610;23;46218;-84
2022/06/17 10:54:34;;;;;;;;;5.75;5.75;;;;;30.91;27.14;101919.78;6181140;23;45649;-85
2022/06/17 10:57:11;;;;;;;;;7.25;6.50;;;;;30.87;26.31;101911.97;6154571;23;45315;-84
2022/06/17 10:59:42;;;;;;;;;8.75;6.25;;;;;30.91;26.10;101917.09;6154864;23;45308;-82
2022/06/17 11:02:25;;;;;;;;;7.00;7.00;;;;;30.97;26.16;101920.00;6205195;22;46015;-84
2022/06/17 11:04:54;;;;;;;;;9.00;8.00;;;;;31.09;25.46;101907.19;6212050;22;45609;-85
2022/06/17 11:07:28;;;;;;;;;7.50;7.00;;;;;31.14;24.80;101909.44;6211757;22;45358;-87
2022/06/17 11:10:02;;;;;;;;;8.25;6.75;;;;;31.24;26.02;101899.44;6185534;22;45304;-86
2022/06/17 11:12:34;;;;;;;;;8.00;7.00;;;;;31.40;25.78;101913.06;6209567;22;48360;-83
2022/06/17 11:15:04;;;;;;;;;7.00;7.00;;;;;31.36;25.00;101902.78;6184974;22;45265;-88
2022/06/17 11:17:39;;;;;;;;;7.75;7.25;;;;;31.33;25.80;101897.69;6185713;22;45351;-82
2022/06/17 11:20:28;;;;;;;;;7.75;6.50;;;;;31.43;25.49;101917.31;6185061;22;45415;-81
2022/06/17 11:22:54;;;;;;;;;8.25;8.25;;;;;31.43;24.80;101904.69;6184758;22;47066;-82
2022/06/17 11:25:22;;;;;;;;;8.75;8.00;;;;;31.52;25.57;101904.78;6211640;22;45227;-81
2022/06/17 11:28:11;;;;;;;;;6.00;6.00;;;;;31.60;25.87;101902.19;6183958;22;45293;-81
2022/06/17 11:30:39;;;;;;;;;7.75;7.25;;;;;31.63;25.62;101899.19;6195164;22;45387;-82
2022/06/17 11:33:21;;;;;;;;;112.50;100.00;;;;;31.64;24.73;101898.19;6184552;22;46165;-80
2022/06/17 11:35:46;;;;;;;;;8.75;8.75;;;;;31.64;24.75;101898.19;6211508;22;45699;-81
2022/06/17 11:38:14;;;;;;;;;7.00;7.00;;;;;31.67;24.79;101897.03;6210287;22;68128;-83
2022/06/17 11:40:51;;;;;;;;;6.00;5.75;;;;;31.70;25.21;101885.97;6184600;22;45248;-81
2022/06/17 11:43:27;;;;;;;;;7.50;6.00;;;;;31.72;25.60;101879.41;6211995;22;46963;-81